createdAt,value
2022-11-16T00:01:11.911Z,15.27
2022-11-16T00:03:38.671Z,15.25
2022-11-16T00:06:08.601Z,14.65
2022-11-16T00:08:37.526Z,15.80
2022-11-16T00:11:24.396Z,16.50
2022-11-16T00:13:51.183Z,15.88
2022-11-16T00:16:20.995Z,16.63
2022-11-16T00:18:47.690Z,18.25
2022-11-16T00:21:14.456Z,17.23
2022-11-16T00:23:48.662Z,15.02
2022-11-16T00:26:15.313Z,19.98
2022-11-16T00:28:41.989Z,17.58
2022-11-16T00:31:09.108Z,18.02
2022-11-16T00:33:35.893Z,15.50
2022-11-16T00:36:04.017Z,16.17
2022-11-16T00:38:30.965Z,18.58
2022-11-16T00:40:57.856Z,18.02
2022-11-16T00:43:24.729Z,18.55
2022-11-16T00:45:51.468Z,21.42
2022-11-16T00:48:18.194Z,17.13
2022-11-16T00:50:45.074Z,15.10
2022-11-16T00:53:15.829Z,16.38
2022-11-16T00:55:43.619Z,16.08
2022-11-16T00:58:10.648Z,14.70
2022-11-16T01:00:37.409Z,11.75
2022-11-16T01:03:04.193Z,12.32
2022-11-16T01:05:30.928Z,12.55
2022-11-16T01:07:57.651Z,12.38
2022-11-16T01:10:24.989Z,14.07
2022-11-16T01:12:51.944Z,15.35
2022-11-16T01:15:19.587Z,12.27
2022-11-16T01:17:46.315Z,13.60
2022-11-16T01:20:15.058Z,13.10
2022-11-16T01:22:41.896Z,12.18
2022-11-16T01:25:09.424Z,16.15
2022-11-16T01:27:37.851Z,13.95
2022-11-16T01:30:05.954Z,13.85
2022-11-16T01:32:33.029Z,10.93
2022-11-16T01:34:59.706Z,12.63
2022-11-16T01:37:26.744Z,13.70
2022-11-16T01:39:53.382Z,14.10
2022-11-16T01:42:21.513Z,14.55
2022-11-16T01:44:48.146Z,12.63
2022-11-16T01:47:15.815Z,11.18
2022-11-16T01:49:50.205Z,13.23
2022-11-16T01:52:22.751Z,12.20
2022-11-16T01:54:51.168Z,13.25
2022-11-16T01:57:22.537Z,10.90
2022-11-16T01:59:50.184Z,15.07
2022-11-16T02:02:16.785Z,9.88
2022-11-16T02:04:43.627Z,7.72
2022-11-16T02:07:23.624Z,7.82
2022-11-16T02:10:17.648Z,11.30
2022-11-16T02:12:44.273Z,8.82
2022-11-16T02:15:22.951Z,10.18
2022-11-16T02:18:01.902Z,8.55
2022-11-16T02:20:46.725Z,9.70
2022-11-16T02:23:19.456Z,9.57
2022-11-16T02:25:51.994Z,9.52
2022-11-16T02:28:40.850Z,10.38
2022-11-16T02:31:07.733Z,11.60
2022-11-16T02:33:36.148Z,7.57
2022-11-16T02:36:03.628Z,8.75
2022-11-16T02:38:32.414Z,9.75
2022-11-16T02:41:03.199Z,10.32
2022-11-16T02:43:32.269Z,12.88
2022-11-16T02:46:01.824Z,11.27
2022-11-16T02:48:38.039Z,13.07
2022-11-16T02:51:05.217Z,13.38
2022-11-16T02:53:39.210Z,12.43
2022-11-16T02:56:06.055Z,16.15
2022-11-16T02:58:33.173Z,17.63
2022-11-16T03:01:08.521Z,16.55
2022-11-16T03:03:45.796Z,16.58
2022-11-16T03:06:20.911Z,13.40
2022-11-16T03:09:12.049Z,15.68
2022-11-16T03:11:41.812Z,15.88
2022-11-16T03:16:43.436Z,12.20
2022-11-16T03:19:12.060Z,15.93
2022-11-16T03:21:46.337Z,11.82
2022-11-16T03:24:12.959Z,14.18
2022-11-16T03:27:21.232Z,12.50
2022-11-16T03:30:01.678Z,10.02
2022-11-16T03:32:40.071Z,8.93
2022-11-16T03:35:28.702Z,8.27
2022-11-16T03:37:56.940Z,7.13
2022-11-16T03:40:23.993Z,7.35
2022-11-16T03:42:50.614Z,14.63
2022-11-16T03:45:17.404Z,13.32
2022-11-16T03:47:44.350Z,7.53
2022-11-16T03:50:11.136Z,9.50
2022-11-16T03:52:37.834Z,8.73
2022-11-16T03:55:04.874Z,7.22
2022-11-16T03:57:31.526Z,5.53
2022-11-16T03:59:58.093Z,12.40
2022-11-16T04:02:24.748Z,8.73
2022-11-16T04:04:51.399Z,15.40
2022-11-16T04:07:18.046Z,9.45
2022-11-16T04:09:44.692Z,11.30
2022-11-16T04:12:11.325Z,10.05
2022-11-16T04:14:37.929Z,8.40
2022-11-16T04:17:06.195Z,7.60
2022-11-16T04:19:32.878Z,10.70
2022-11-16T04:22:02.454Z,8.93
2022-11-16T04:24:30.494Z,8.20
2022-11-16T04:27:08.085Z,9.30
2022-11-16T04:29:34.815Z,9.98
2022-11-16T04:32:01.817Z,11.48
2022-11-16T04:34:28.508Z,10.98
2022-11-16T04:36:55.094Z,8.70
2022-11-16T04:39:21.933Z,9.73
2022-11-16T04:41:48.634Z,11.77
2022-11-16T04:44:15.318Z,13.68
2022-11-16T04:46:41.917Z,7.47
2022-11-16T04:49:08.586Z,6.63
2022-11-16T04:51:35.231Z,7.80
2022-11-16T04:54:01.842Z,9.13
2022-11-16T04:56:28.475Z,10.35
2022-11-16T04:58:55.324Z,9.20
2022-11-16T05:01:22.021Z,10.68
2022-11-16T05:03:48.646Z,13.45
2022-11-16T05:06:15.309Z,8.20
2022-11-16T05:08:41.942Z,20.65
2022-11-16T05:11:08.514Z,11.60
2022-11-16T05:13:35.144Z,15.07
2022-11-16T05:16:01.768Z,14.52
2022-11-16T05:18:28.516Z,15.05
2022-11-16T05:20:55.135Z,13.32
2022-11-16T05:23:21.779Z,13.68
2022-11-16T05:25:48.420Z,8.75
2022-11-16T05:28:15.075Z,13.48
2022-11-16T05:30:44.880Z,9.88
2022-11-16T05:35:38.029Z,10.30
2022-11-16T05:38:04.629Z,9.93
2022-11-16T05:40:31.248Z,13.57
2022-11-16T05:42:58.012Z,7.30
2022-11-16T05:45:24.665Z,10.35
2022-11-16T05:47:51.344Z,11.13
2022-11-16T05:50:17.990Z,19.48
2022-11-16T05:52:44.647Z,14.02
2022-11-16T05:55:11.260Z,10.52
2022-11-16T05:57:37.959Z,10.32
2022-11-16T06:00:05.077Z,10.85
2022-11-16T06:02:33.156Z,12.50
2022-11-16T06:04:59.760Z,14.20
2022-11-16T06:07:29.421Z,15.00
2022-11-16T06:09:56.057Z,13.52
2022-11-16T06:12:22.704Z,14.98
2022-11-16T06:14:49.390Z,13.13
2022-11-16T06:17:16.026Z,16.17
2022-11-16T06:19:42.701Z,12.85
2022-11-16T06:22:09.385Z,12.63
2022-11-16T06:24:36.125Z,12.27
2022-11-16T06:27:02.788Z,11.88
2022-11-16T06:29:29.399Z,11.55
2022-11-16T06:31:56.042Z,14.13
2022-11-16T06:34:22.785Z,15.85
2022-11-16T06:36:49.401Z,16.65
2022-11-16T06:39:16.873Z,13.55
2022-11-16T06:41:43.492Z,17.48
2022-11-16T06:44:10.226Z,14.82
2022-11-16T06:46:36.858Z,18.00
2022-11-16T06:49:03.493Z,19.02
2022-11-16T06:51:30.131Z,14.73
2022-11-16T06:53:56.750Z,19.85
2022-11-16T06:56:23.567Z,14.00
2022-11-16T06:58:53.305Z,16.38
2022-11-16T07:01:20.337Z,16.70
2022-11-16T07:03:46.991Z,14.35
2022-11-16T07:06:13.770Z,15.60
2022-11-16T07:08:40.601Z,21.88
2022-11-16T07:11:08.116Z,21.05
2022-11-16T07:13:38.546Z,15.68
2022-11-16T07:16:09.280Z,13.80
2022-11-16T07:18:37.669Z,22.52
2022-11-16T07:21:14.760Z,18.63
2022-11-16T07:23:43.810Z,13.40
2022-11-16T07:26:10.665Z,20.40
2022-11-16T07:28:39.147Z,17.65
2022-11-16T07:31:10.485Z,17.50
2022-11-16T07:33:37.253Z,17.50
2022-11-16T07:36:05.262Z,17.90
2022-11-16T07:38:32.302Z,24.52
2022-11-16T07:41:03.003Z,17.25
2022-11-16T07:43:30.234Z,16.90
2022-11-16T07:46:03.918Z,17.27
2022-11-16T07:48:43.769Z,22.30
2022-11-16T07:51:12.256Z,9.05
2022-11-16T07:53:38.886Z,10.57
2022-11-16T07:56:05.928Z,15.40
2022-11-16T07:58:33.000Z,18.13
2022-11-16T08:01:07.230Z,18.40
2022-11-16T08:03:34.946Z,15.50
2022-11-16T08:06:08.420Z,18.10
2022-11-16T08:08:35.401Z,24.70
2022-11-16T08:11:03.775Z,17.38
2022-11-16T08:13:30.700Z,15.43
2022-11-16T08:16:02.965Z,13.77
2022-11-16T08:18:30.105Z,21.05
2022-11-16T08:20:59.304Z,14.88
2022-11-16T08:23:25.945Z,16.02
2022-11-16T08:25:52.563Z,15.25
2022-11-16T08:28:19.212Z,19.75
2022-11-16T08:30:49.651Z,19.73
2022-11-16T08:33:20.267Z,17.20
2022-11-16T08:35:47.645Z,12.45
2022-11-16T08:38:14.587Z,16.38
2022-11-16T08:40:41.323Z,8.40
2022-11-16T08:43:07.980Z,12.55
2022-11-16T08:45:34.578Z,14.35
2022-11-16T08:48:04.081Z,11.25
2022-11-16T08:53:06.431Z,10.95
2022-11-16T08:55:33.692Z,16.75
2022-11-16T08:58:00.317Z,17.25
2022-11-16T09:00:26.932Z,18.83
2022-11-16T09:02:53.704Z,12.90
2022-11-16T09:05:20.323Z,19.95
2022-11-16T09:07:47.038Z,10.85
2022-11-16T09:10:13.679Z,12.10
2022-11-16T09:12:40.305Z,8.27
2022-11-16T09:15:07.453Z,14.02
2022-11-16T09:17:34.275Z,6.85
2022-11-16T09:20:01.004Z,10.80
2022-11-16T09:22:27.760Z,12.38
2022-11-16T09:24:54.430Z,11.18
2022-11-16T09:27:21.061Z,8.82
2022-11-16T09:29:47.670Z,9.13
2022-11-16T09:32:14.421Z,9.55
2022-11-16T09:34:41.109Z,6.65
2022-11-16T09:37:07.759Z,11.77
2022-11-16T09:39:34.406Z,6.55
2022-11-16T09:42:32.846Z,10.60
2022-11-16T09:45:22.711Z,11.35
2022-11-16T09:47:51.016Z,8.45
2022-11-16T09:50:40.827Z,6.50
2022-11-16T09:53:33.518Z,12.18
2022-11-16T09:56:03.670Z,9.18
2022-11-16T09:58:31.899Z,9.45
2022-11-16T10:01:19.994Z,7.95
2022-11-16T10:03:46.895Z,12.23
2022-11-16T10:06:22.347Z,8.88
2022-11-16T10:08:50.348Z,5.88
2022-11-16T10:11:30.001Z,9.88
2022-11-16T10:14:24.889Z,6.47
2022-11-16T10:17:13.034Z,12.07
2022-11-16T10:20:07.037Z,7.53
2022-11-16T10:23:01.757Z,9.98
2022-11-16T10:25:38.024Z,9.15
2022-11-16T10:28:15.889Z,11.88
2022-11-16T10:31:11.409Z,6.05
2022-11-16T10:33:38.178Z,8.90
2022-11-16T10:36:08.540Z,7.45
2022-11-16T10:38:35.178Z,8.90
2022-11-16T10:41:23.550Z,10.52
2022-11-16T10:43:50.244Z,10.73
2022-11-16T10:46:33.501Z,7.05
2022-11-16T10:49:03.182Z,9.52
2022-11-16T10:51:32.298Z,9.50
2022-11-16T10:53:59.040Z,5.97
2022-11-16T10:56:34.916Z,9.57
2022-11-16T10:59:03.529Z,8.32
2022-11-16T11:01:40.069Z,8.35
2022-11-16T11:04:13.107Z,5.63
2022-11-16T11:06:39.751Z,7.75
2022-11-16T11:09:28.447Z,6.53
2022-11-16T11:12:02.353Z,5.20
2022-11-16T11:14:29.002Z,8.52
2022-11-16T11:16:55.697Z,7.22
2022-11-16T11:19:27.054Z,6.78
2022-11-16T11:22:00.086Z,9.20
2022-11-16T11:24:43.840Z,4.10
2022-11-16T11:27:11.536Z,7.65
2022-11-16T11:29:39.606Z,6.97
2022-11-16T11:32:20.840Z,8.27
2022-11-16T11:34:52.692Z,4.97
2022-11-16T11:38:06.306Z,7.35
2022-11-16T11:40:41.672Z,9.30
2022-11-16T11:43:10.515Z,5.30
2022-11-16T11:45:50.043Z,8.00
2022-11-16T11:48:43.935Z,10.02
2022-11-16T11:51:21.797Z,5.53
2022-11-16T11:53:58.625Z,7.97
2022-11-16T11:56:26.133Z,5.80
2022-11-16T11:58:56.200Z,7.63
2022-11-16T12:01:50.409Z,7.95
2022-11-16T12:07:41.585Z,10.27
2022-11-16T12:10:49.302Z,8.27
2022-11-16T12:13:40.892Z,5.93
2022-11-16T12:16:07.718Z,8.63
2022-11-16T12:18:53.010Z,6.95
2022-11-16T12:21:38.454Z,8.10
2022-11-16T12:24:31.215Z,6.88
2022-11-16T12:27:05.594Z,7.03
2022-11-16T12:29:37.881Z,8.38
2022-11-16T12:32:15.690Z,8.73
2022-11-16T12:35:04.438Z,10.05
2022-11-16T12:37:34.165Z,7.45
2022-11-16T12:40:27.264Z,8.70
2022-11-16T12:43:03.219Z,8.32
2022-11-16T12:45:37.596Z,7.07
2022-11-16T12:48:41.193Z,10.90
2022-11-16T12:51:15.102Z,11.32
2022-11-16T12:53:53.559Z,7.32
2022-11-16T12:56:50.820Z,9.60
2022-11-16T12:59:40.603Z,7.65
2022-11-16T13:02:34.443Z,9.57
2022-11-16T13:05:13.171Z,7.32
2022-11-16T13:07:45.753Z,9.27
2022-11-16T13:10:15.463Z,6.32
2022-11-16T13:12:42.436Z,9.85
2022-11-16T13:15:14.753Z,12.23
2022-11-16T13:17:41.417Z,6.03
2022-11-16T13:20:35.252Z,9.00
2022-11-16T13:23:07.553Z,9.68
2022-11-16T13:25:40.500Z,8.70
2022-11-16T13:28:17.616Z,5.45
2022-11-16T13:30:57.550Z,7.60
2022-11-16T13:33:50.976Z,9.07
2022-11-16T13:36:36.103Z,7.18
2022-11-16T13:39:04.158Z,8.98
2022-11-16T13:41:44.604Z,10.30
2022-11-16T13:44:18.776Z,8.70
2022-11-16T13:46:57.572Z,8.43
2022-11-16T13:49:32.703Z,7.38
2022-11-16T13:52:22.200Z,6.35
2022-11-16T13:54:52.250Z,7.95
2022-11-16T13:57:25.279Z,7.25
2022-11-16T13:59:57.082Z,7.80
2022-11-16T14:02:40.179Z,6.80
2022-11-16T14:05:18.211Z,9.60
2022-11-16T14:07:47.849Z,6.30
2022-11-16T14:15:32.640Z,8.73
2022-11-16T14:18:08.513Z,7.43
2022-11-16T14:20:37.955Z,7.93
2022-11-16T14:23:04.660Z,9.07
2022-11-16T14:25:46.079Z,7.45
2022-11-16T14:28:31.675Z,8.45
2022-11-16T14:31:20.946Z,10.40
2022-11-16T14:33:55.362Z,9.77
2022-11-16T14:36:38.863Z,9.95
2022-11-16T14:39:25.157Z,8.05
2022-11-16T14:41:52.432Z,7.90
2022-11-16T14:44:19.886Z,7.53
2022-11-16T14:46:46.684Z,10.25
2022-11-16T14:49:14.723Z,11.02
2022-11-16T14:51:46.232Z,9.52
2022-11-16T14:54:23.827Z,9.32
2022-11-16T14:56:57.459Z,7.05
2022-11-16T14:59:24.247Z,9.48
2022-11-16T15:01:50.922Z,8.55
2022-11-16T15:04:17.609Z,11.15
2022-11-16T15:06:50.508Z,9.48
2022-11-16T15:09:27.264Z,8.90
2022-11-16T15:11:54.117Z,9.45
2022-11-16T15:14:25.762Z,9.23
2022-11-16T15:16:53.785Z,10.98
2022-11-16T15:19:22.732Z,7.15
2022-11-16T15:22:00.058Z,10.10
2022-11-16T15:24:34.997Z,9.80
2022-11-16T15:27:12.458Z,10.98
2022-11-16T15:29:39.179Z,6.72
2022-11-16T15:32:06.472Z,9.32
2022-11-16T15:34:33.119Z,11.35
2022-11-16T15:36:59.722Z,8.10
2022-11-16T15:39:28.496Z,7.45
2022-11-16T15:42:00.434Z,7.75
2022-11-16T15:44:30.391Z,12.52
2022-11-16T15:46:57.009Z,10.73
2022-11-16T15:49:29.542Z,8.07
2022-11-16T15:52:03.100Z,8.90
2022-11-16T15:54:31.374Z,11.38
2022-11-16T15:57:06.610Z,8.05
2022-11-16T15:59:36.431Z,8.50
2022-11-16T16:02:03.968Z,9.00
2022-11-16T16:04:31.019Z,9.10
2022-11-16T16:06:59.178Z,7.15
2022-11-16T16:09:37.192Z,11.13
2022-11-16T16:12:17.977Z,7.07
2022-11-16T16:14:45.888Z,13.18
2022-11-16T16:17:22.400Z,13.38
2022-11-16T16:19:59.803Z,6.25
2022-11-16T16:22:33.901Z,9.52
2022-11-16T16:25:02.430Z,11.55
2022-11-16T16:27:30.521Z,12.48
2022-11-16T16:29:58.310Z,6.82
2022-11-16T16:32:32.652Z,8.48
2022-11-16T16:35:07.771Z,7.90
2022-11-16T16:37:42.186Z,12.48
2022-11-16T16:40:09.575Z,7.47
2022-11-16T16:42:55.123Z,10.13
2022-11-16T16:45:29.414Z,10.10
2022-11-16T16:47:56.169Z,13.75
2022-11-16T16:50:22.804Z,13.18
2022-11-16T16:52:49.485Z,12.18
2022-11-16T16:55:19.270Z,10.00
2022-11-16T16:57:45.936Z,11.90
2022-11-16T17:00:13.148Z,8.32
2022-11-16T17:02:39.830Z,10.88
2022-11-16T17:05:06.999Z,9.93
2022-11-16T17:07:33.784Z,14.95
2022-11-16T17:10:00.481Z,11.15
2022-11-16T17:12:27.258Z,10.13
2022-11-16T17:14:53.892Z,8.48
2022-11-16T17:17:21.033Z,13.43
2022-11-16T17:19:47.656Z,12.10
2022-11-16T17:22:14.334Z,13.43
2022-11-16T17:24:41.004Z,10.27
2022-11-16T17:27:07.613Z,11.68
2022-11-16T17:29:34.244Z,17.48
2022-11-16T17:32:00.916Z,14.30
2022-11-16T17:34:27.582Z,13.10
2022-11-16T17:36:54.199Z,7.35
2022-11-16T17:39:20.894Z,9.02
2022-11-16T17:41:47.542Z,6.47
2022-11-16T17:44:20.158Z,8.55
2022-11-16T17:46:48.190Z,11.07
2022-11-16T17:49:14.859Z,7.50
2022-11-16T17:51:41.536Z,8.60
2022-11-16T17:54:08.166Z,9.50
2022-11-16T17:56:36.941Z,6.07
2022-11-16T17:59:03.718Z,9.48
2022-11-16T18:01:30.403Z,9.60
2022-11-16T18:03:57.202Z,8.88
2022-11-16T18:06:24.645Z,11.00
2022-11-16T18:08:51.734Z,10.15
2022-11-16T18:11:22.744Z,8.98
2022-11-16T18:13:54.953Z,6.90
2022-11-16T18:23:38.586Z,8.30
2022-11-16T18:26:42.345Z,9.18
2022-11-16T18:43:55.423Z,7.60
2022-11-16T19:28:56.797Z,7.55
2022-11-16T19:31:25.368Z,8.43
2022-11-16T19:33:55.439Z,9.32
2022-11-16T19:36:22.314Z,8.07
2022-11-16T19:38:49.228Z,10.18
2022-11-16T19:41:16.940Z,12.10
2022-11-16T19:43:43.699Z,7.47
2022-11-16T19:54:47.902Z,6.65
2022-11-16T19:57:14.698Z,8.15
2022-11-16T19:59:41.371Z,11.85
2022-11-16T20:02:09.401Z,11.10
2022-11-16T20:04:36.210Z,9.52
2022-11-16T20:07:02.973Z,10.80
2022-11-16T20:09:32.234Z,8.10
2022-11-16T20:12:09.475Z,10.55
2022-11-16T20:14:36.488Z,12.90
2022-11-16T20:17:05.864Z,11.52
2022-11-16T20:19:32.585Z,13.57
2022-11-16T20:21:59.594Z,7.40
2022-11-16T20:24:26.334Z,10.05
2022-11-16T20:26:56.165Z,11.50
2022-11-16T20:29:22.996Z,10.80
2022-11-16T20:31:49.633Z,10.88
2022-11-16T20:34:16.595Z,13.50
2022-11-16T20:36:46.787Z,13.10
2022-11-16T20:39:14.698Z,12.68
2022-11-16T20:41:41.477Z,10.02
2022-11-16T20:44:15.979Z,8.45
2022-11-16T20:46:43.227Z,9.00
2022-11-16T20:49:10.286Z,10.25
2022-11-16T20:51:37.182Z,8.85
2022-11-16T20:54:04.139Z,11.52
2022-11-16T20:56:30.846Z,9.80
2022-11-16T20:58:57.548Z,11.77
2022-11-16T21:01:26.166Z,8.98
2022-11-16T21:03:53.377Z,11.98
2022-11-16T21:06:20.807Z,11.45
2022-11-16T21:08:48.103Z,13.77
2022-11-16T21:11:19.512Z,19.48
2022-11-16T21:13:46.637Z,10.77
2022-11-16T21:16:13.817Z,11.85
2022-11-16T21:18:40.485Z,18.95
2022-11-16T21:21:11.537Z,15.43
2022-11-16T21:23:39.199Z,16.40
2022-11-16T21:26:07.370Z,16.67
2022-11-16T21:28:34.125Z,12.40
2022-11-16T21:31:02.089Z,18.48
2022-11-16T21:33:28.986Z,15.32
2022-11-16T21:35:55.685Z,13.68
2022-11-16T21:38:23.508Z,10.63
2022-11-16T21:40:50.251Z,10.00
2022-11-16T21:43:17.089Z,16.10
2022-11-16T21:45:47.536Z,19.80
2022-11-16T21:48:14.317Z,13.13
2022-11-16T21:50:41.669Z,20.05
2022-11-16T21:53:08.791Z,18.55
2022-11-16T21:55:35.520Z,18.63
2022-11-16T21:58:02.296Z,15.10
2022-11-16T22:00:29.018Z,20.65
2022-11-16T22:02:55.648Z,15.35
2022-11-16T22:05:22.393Z,17.65
2022-11-16T22:07:49.167Z,14.43
2022-11-16T22:10:15.933Z,16.25
2022-11-16T22:12:42.534Z,12.32
2022-11-16T22:15:09.623Z,17.00
2022-11-16T22:17:36.290Z,17.58
2022-11-16T22:20:03.014Z,10.77
2022-11-16T22:22:29.655Z,13.77
2022-11-16T22:24:56.341Z,15.75
2022-11-16T22:27:24.317Z,13.48
2022-11-16T22:29:50.960Z,17.50
2022-11-16T22:32:17.587Z,14.65
2022-11-16T22:34:44.301Z,16.50
2022-11-16T22:37:10.921Z,16.83
2022-11-16T22:39:37.576Z,15.73
2022-11-16T22:42:04.514Z,11.35
2022-11-16T22:44:31.099Z,12.50
2022-11-16T22:46:57.826Z,9.55
2022-11-16T22:49:24.574Z,11.13
2022-11-16T22:51:51.214Z,7.82
2022-11-16T22:54:18.000Z,10.68
2022-11-16T22:56:44.683Z,9.63
2022-11-16T22:59:11.336Z,12.27
2022-11-16T23:01:37.983Z,9.90
2022-11-16T23:04:04.716Z,5.88
2022-11-16T23:06:31.342Z,11.68
2022-11-16T23:08:58.055Z,7.20
2022-11-16T23:11:27.941Z,9.73
2022-11-16T23:13:54.656Z,12.63
2022-11-16T23:16:21.258Z,9.25
2022-11-16T23:18:47.871Z,7.88
2022-11-16T23:21:14.518Z,9.70
2022-11-16T23:23:41.105Z,12.82
2022-11-16T23:26:12.870Z,5.10
2022-11-16T23:28:39.544Z,10.48
2022-11-16T23:31:06.300Z,10.27
2022-11-16T23:33:33.213Z,10.13
2022-11-16T23:36:00.896Z,10.43
2022-11-16T23:38:27.500Z,10.07
2022-11-16T23:40:54.139Z,10.27
2022-11-16T23:43:20.836Z,8.80
2022-11-16T23:45:47.451Z,12.57
2022-11-16T23:48:15.219Z,9.13
2022-11-16T23:50:42.004Z,14.38
2022-11-16T23:53:08.940Z,11.15
2022-11-16T23:55:36.276Z,8.27
2022-11-16T23:58:02.934Z,7.90
